Time;durP1;ratioP1;P1;durP2;ratioP2;P2;SDS_P1;SDS_P2;PMS_P1;PMS_P2;Temp;Humidity;BMP_temperature;BMP_pressure;BME280_temperature;BME280_humidity;BME280_pressure;Samples;Min_cycle;Max_cycle;Signal;HPM_P1;HPM_P2
2023/09/17 00:00:04;;;;;;;6.20;3.90;;;;;;;;;;4990183;28;20038;-75
2023/09/17 00:02:30;;;;;;;7.93;4.13;;;;;;;;;;4993349;28;20037;-76
2023/09/17 00:04:56;;;;;;;7.55;5.03;;;;;;;;;;4997152;28;20627;-76
2023/09/17 00:07:22;;;;;;;6.20;4.20;;;;;;;;;;5006795;28;20030;-76
2023/09/17 00:09:49;;;;;;;7.28;4.40;;;;;;;;;;5002245;28;20436;-76
2023/09/17 00:12:15;;;;;;;6.60;4.15;;;;;;;;;;5007172;28;20461;-76
2023/09/17 00:14:41;;;;;;;7.30;4.15;;;;;;;;;;5007688;28;20026;-76
2023/09/17 00:17:07;;;;;;;7.03;4.28;;;;;;;;;;5008162;28;20056;-76
2023/09/17 00:19:33;;;;;;;6.78;4.55;;;;;;;;;;5010272;28;20033;-76
2023/09/17 00:21:59;;;;;;;7.05;4.18;;;;;;;;;;5010038;28;20033;-76
2023/09/17 00:24:25;;;;;;;5.82;3.88;;;;;;;;;;5010701;28;20080;-76
2023/09/17 00:26:51;;;;;;;8.88;4.80;;;;;;;;;;5003275;28;20030;-76
2023/09/17 00:29:17;;;;;;;7.07;4.03;;;;;;;;;;5002405;28;20033;-76
2023/09/17 00:31:43;;;;;;;7.20;4.82;;;;;;;;;;5000455;28;20018;-76
2023/09/17 00:34:09;;;;;;;5.43;3.70;;;;;;;;;;5009791;28;20424;-76
2023/09/17 00:36:36;;;;;;;8.75;4.50;;;;;;;;;;5007322;28;20026;-76
2023/09/17 00:39:03;;;;;;;7.50;4.28;;;;;;;;;;4999101;28;20030;-76
2023/09/17 00:41:29;;;;;;;6.57;4.43;;;;;;;;;;4990814;28;20027;-76
2023/09/17 00:43:55;;;;;;;6.88;4.40;;;;;;;;;;5000336;28;20045;-75
2023/09/17 00:46:21;;;;;;;4.88;3.50;;;;;;;;;;5004542;28;20026;-76
2023/09/17 00:48:47;;;;;;;6.97;3.88;;;;;;;;;;5009535;28;20033;-76
2023/09/17 00:51:13;;;;;;;7.82;4.22;;;;;;;;;;5009399;28;20022;-76
2023/09/17 00:53:40;;;;;;;5.07;3.45;;;;;;;;;;5008590;28;20033;-76
2023/09/17 00:56:06;;;;;;;8.60;4.47;;;;;;;;;;5001120;28;20164;-76
2023/09/17 00:58:33;;;;;;;5.68;4.00;;;;;;;;;;5003317;28;20060;-76
2023/09/17 01:00:59;;;;;;;5.65;3.85;;;;;;;;;;5005885;28;20117;-76
2023/09/17 01:03:28;;;;;;;6.78;4.20;;;;;;;;;;5004474;28;20116;-76
2023/09/17 01:05:56;;;;;;;4.63;3.45;;;;;;;;;;5001274;28;20061;-76
2023/09/17 01:08:24;;;;;;;6.80;4.35;;;;;;;;;;5009581;28;20384;-76
2023/09/17 01:10:54;;;;;;;5.57;3.45;;;;;;;;;;5008965;28;20393;-76
2023/09/17 01:13:19;;;;;;;6.70;4.07;;;;;;;;;;5007382;28;20046;-76
2023/09/17 01:15:45;;;;;;;6.25;4.07;;;;;;;;;;5009549;28;20037;-76
2023/09/17 01:18:12;;;;;;;5.65;3.83;;;;;;;;;;5007608;28;20404;-76
2023/09/17 01:20:41;;;;;;;6.00;3.22;;;;;;;;;;5007445;28;20057;-76
2023/09/17 01:23:11;;;;;;;6.22;3.75;;;;;;;;;;5004587;28;20029;-75
2023/09/17 01:25:46;;;;;;;7.38;3.85;;;;;;;;;;5008113;28;20040;-76
2023/09/17 01:28:13;;;;;;;6.70;4.35;;;;;;;;;;5008544;28;20033;-75
2023/09/17 01:30:41;;;;;;;4.85;3.50;;;;;;;;;;5004272;28;20388;-75
2023/09/17 01:33:09;;;;;;;9.10;4.30;;;;;;;;;;5004371;28;20052;-75
2023/09/17 01:35:39;;;;;;;7.47;4.18;;;;;;;;;;5004364;28;20596;-75
2023/09/17 01:38:08;;;;;;;7.50;4.68;;;;;;;;;;4995479;28;20535;-75
2023/09/17 01:40:34;;;;;;;7.80;4.47;;;;;;;;;;4997091;28;20034;-75
2023/09/17 01:43:01;;;;;;;7.07;4.00;;;;;;;;;;5006814;28;20041;-75
2023/09/17 01:45:28;;;;;;;6.35;4.55;;;;;;;;;;5007646;28;20649;-75
2023/09/17 01:47:54;;;;;;;7.88;4.30;;;;;;;;;;5000739;28;20076;-76
2023/09/17 01:50:23;;;;;;;4.30;3.58;;;;;;;;;;5006755;28;20366;-75
2023/09/17 01:52:49;;;;;;;6.25;4.15;;;;;;;;;;5004796;28;20022;-75
2023/09/17 01:55:15;;;;;;;5.75;3.42;;;;;;;;;;5005322;28;20544;-75
2023/09/17 01:57:42;;;;;;;6.70;4.18;;;;;;;;;;5002601;28;20034;-75
2023/09/17 02:00:16;;;;;;;7.57;3.78;;;;;;;;;;5000533;28;20030;-75
2023/09/17 02:02:43;;;;;;;8.13;3.88;;;;;;;;;;5007230;28;20037;-75
2023/09/17 02:05:10;;;;;;;5.00;3.53;;;;;;;;;;5011617;28;20060;-75
2023/09/17 02:07:36;;;;;;;5.47;3.65;;;;;;;;;;5011269;28;20653;-76
2023/09/17 02:10:02;;;;;;;3.90;3.05;;;;;;;;;;5009040;28;20029;-76
2023/09/17 02:12:28;;;;;;;6.50;3.83;;;;;;;;;;5009897;28;20026;-76
2023/09/17 02:14:54;;;;;;;4.60;3.35;;;;;;;;;;5001581;28;20034;-76
2023/09/17 02:17:21;;;;;;;6.90;4.05;;;;;;;;;;5004429;28;20037;-76
2023/09/17 02:19:47;;;;;;;4.88;3.47;;;;;;;;;;5010124;28;20139;-76
2023/09/17 02:22:13;;;;;;;8.20;4.30;;;;;;;;;;5015540;28;20026;-76
2023/09/17 02:24:39;;;;;;;5.93;3.28;;;;;;;;;;5011484;28;21360;-76
2023/09/17 02:27:05;;;;;;;6.40;3.55;;;;;;;;;;5012075;28;20018;-76
2023/09/17 02:29:31;;;;;;;5.97;3.67;;;;;;;;;;5005935;28;20045;-76
2023/09/17 02:31:57;;;;;;;5.30;3.67;;;;;;;;;;5012590;28;20025;-76
2023/09/17 02:34:23;;;;;;;4.53;3.50;;;;;;;;;;5005089;28;20087;-76
2023/09/17 02:36:49;;;;;;;6.30;3.63;;;;;;;;;;5010966;28;20091;-75
2023/09/17 02:39:15;;;;;;;5.93;3.70;;;;;;;;;;5012429;28;20059;-76
2023/09/17 02:41:41;;;;;;;5.00;3.28;;;;;;;;;;5009293;28;20110;-76
2023/09/17 02:44:07;;;;;;;5.53;3.85;;;;;;;;;;5006623;28;20267;-76
2023/09/17 02:46:33;;;;;;;6.45;4.00;;;;;;;;;;5012168;28;20029;-75
2023/09/17 02:49:00;;;;;;;5.38;3.30;;;;;;;;;;5012291;28;20088;-76
2023/09/17 02:51:26;;;;;;;5.88;3.72;;;;;;;;;;5015378;28;20482;-76
2023/09/17 02:53:52;;;;;;;7.05;3.50;;;;;;;;;;5007532;28;20042;-76
2023/09/17 02:56:18;;;;;;;6.38;3.33;;;;;;;;;;5011715;28;20397;-76
2023/09/17 02:58:46;;;;;;;9.10;3.58;;;;;;;;;;5008926;28;20026;-76
2023/09/17 03:01:16;;;;;;;3.90;3.30;;;;;;;;;;5013454;28;20384;-76
2023/09/17 03:03:42;;;;;;;5.87;3.50;;;;;;;;;;5003744;28;20030;-76
2023/09/17 03:06:10;;;;;;;5.38;3.63;;;;;;;;;;5011099;28;20042;-75
2023/09/17 03:08:41;;;;;;;5.30;3.22;;;;;;;;;;5011383;28;20388;-75
2023/09/17 03:11:07;;;;;;;5.90;3.83;;;;;;;;;;5009687;28;20025;-76
2023/09/17 03:13:33;;;;;;;6.68;3.53;;;;;;;;;;5010736;28;20038;-76
2023/09/17 03:15:59;;;;;;;4.47;3.28;;;;;;;;;;5005370;28;20036;-76
2023/09/17 03:18:25;;;;;;;4.80;3.25;;;;;;;;;;5002954;28;20393;-76
2023/09/17 03:20:52;;;;;;;7.95;4.38;;;;;;;;;;5010196;28;20144;-76
2023/09/17 03:23:18;;;;;;;5.88;4.07;;;;;;;;;;5011258;28;20437;-76
2023/09/17 03:25:44;;;;;;;4.65;3.05;;;;;;;;;;5009464;28;20022;-77
2023/09/17 03:28:11;;;;;;;4.70;3.08;;;;;;;;;;5006991;28;20022;-76
2023/09/17 03:30:38;;;;;;;5.43;3.33;;;;;;;;;;5006581;28;20022;-76
2023/09/17 03:33:05;;;;;;;5.85;3.40;;;;;;;;;;5004581;28;20400;-75
2023/09/17 03:35:31;;;;;;;4.57;2.70;;;;;;;;;;5007965;28;20370;-76
2023/09/17 03:37:57;;;;;;;4.90;3.42;;;;;;;;;;5008575;28;20447;-77
2023/09/17 03:40:24;;;;;;;6.35;3.13;;;;;;;;;;5009817;28;20026;-76
2023/09/17 03:42:50;;;;;;;5.18;3.47;;;;;;;;;;5000155;28;20038;-76
2023/09/17 03:45:16;;;;;;;5.13;3.35;;;;;;;;;;5009144;28;20030;-76
2023/09/17 03:47:43;;;;;;;5.53;3.05;;;;;;;;;;5004816;28;20026;-77
2023/09/17 03:50:11;;;;;;;5.68;3.55;;;;;;;;;;5009933;28;20468;-76
2023/09/17 03:52:37;;;;;;;6.80;3.42;;;;;;;;;;5010091;28;20030;-77
2023/09/17 03:55:07;;;;;;;5.80;3.22;;;;;;;;;;5010256;28;20029;-76
2023/09/17 03:57:34;;;;;;;5.03;3.33;;;;;;;;;;5010516;28;20396;-76
2023/09/17 04:00:01;;;;;;;5.80;3.13;;;;;;;;;;5003766;28;20078;-76
2023/09/17 04:02:26;;;;;;;6.05;3.40;;;;;;;;;;5004737;28;20037;-76
2023/09/17 04:04:52;;;;;;;6.68;3.25;;;;;;;;;;5006342;28;20041;-76
2023/09/17 04:07:18;;;;;;;3.80;3.03;;;;;;;;;;5009467;28;20872;-76
2023/09/17 04:09:44;;;;;;;5.40;3.50;;;;;;;;;;5010696;28;20448;-76
2023/09/17 04:12:11;;;;;;;6.18;3.17;;;;;;;;;;5007099;28;20018;-76
2023/09/17 04:14:37;;;;;;;5.65;3.00;;;;;;;;;;5012364;28;20033;-76
2023/09/17 04:17:05;;;;;;;4.00;3.00;;;;;;;;;;5011173;28;20056;-76
2023/09/17 04:19:31;;;;;;;5.65;2.50;;;;;;;;;;5014310;28;20033;-76
2023/09/17 04:21:57;;;;;;;4.50;3.22;;;;;;;;;;5005754;28;20036;-76
2023/09/17 04:24:24;;;;;;;5.88;3.13;;;;;;;;;;5006715;28;20038;-76
2023/09/17 04:26:52;;;;;;;4.07;2.78;;;;;;;;;;5022113;28;20508;-76
2023/09/17 04:29:18;;;;;;;5.50;3.17;;;;;;;;;;5008610;28;20041;-76
2023/09/17 04:31:44;;;;;;;4.60;3.03;;;;;;;;;;5002624;28;20026;-82
2023/09/17 04:34:11;;;;;;;5.30;3.28;;;;;;;;;;5008463;28;20038;-82
2023/09/17 04:36:37;;;;;;;6.40;3.63;;;;;;;;;;4993587;28;20045;-81
2023/09/17 04:39:03;;;;;;;4.88;3.25;;;;;;;;;;5008175;28;20026;-81
2023/09/17 04:41:29;;;;;;;5.57;3.13;;;;;;;;;;5010112;28;20044;-81
2023/09/17 04:43:55;;;;;;;5.47;3.33;;;;;;;;;;5010285;28;20125;-81
2023/09/17 04:46:22;;;;;;;5.55;3.25;;;;;;;;;;5011619;28;20416;-80
2023/09/17 04:48:48;;;;;;;5.20;3.60;;;;;;;;;;5001027;28;20022;-81
2023/09/17 04:51:16;;;;;;;3.90;2.65;;;;;;;;;;5009382;28;20033;-81
2023/09/17 04:53:42;;;;;;;5.50;3.20;;;;;;;;;;5002803;28;20040;-81
2023/09/17 04:56:08;;;;;;;5.25;2.95;;;;;;;;;;5005737;28;20055;-81
2023/09/17 04:58:34;;;;;;;3.92;2.58;;;;;;;;;;5009465;28;20044;-81
2023/09/17 05:01:00;;;;;;;4.78;2.88;;;;;;;;;;5014641;28;20037;-81
2023/09/17 05:03:26;;;;;;;4.82;2.97;;;;;;;;;;5018278;28;20112;-81
2023/09/17 05:05:52;;;;;;;5.05;2.97;;;;;;;;;;4999009;28;20050;-80
2023/09/17 05:08:19;;;;;;;5.13;2.85;;;;;;;;;;4988307;28;20026;-80
2023/09/17 05:10:45;;;;;;;6.10;2.83;;;;;;;;;;4986859;28;20034;-81
2023/09/17 05:13:11;;;;;;;5.13;3.10;;;;;;;;;;4989513;28;20072;-81
2023/09/17 05:15:38;;;;;;;4.57;3.03;;;;;;;;;;4988013;28;20026;-80
2023/09/17 05:18:09;;;;;;;3.85;2.58;;;;;;;;;;4988069;28;20079;-80
2023/09/17 05:20:35;;;;;;;10.13;3.25;;;;;;;;;;4988827;28;20045;-80
2023/09/17 05:23:01;;;;;;;3.75;2.50;;;;;;;;;;4989153;28;20034;-80
2023/09/17 05:25:27;;;;;;;5.88;2.85;;;;;;;;;;4990446;28;20042;-80
2023/09/17 05:27:53;;;;;;;5.20;3.13;;;;;;;;;;4987156;28;20038;-80
2023/09/17 05:30:19;;;;;;;3.97;2.88;;;;;;;;;;4984588;28;20030;-80
2023/09/17 05:32:45;;;;;;;4.32;2.72;;;;;;;;;;4983462;28;20082;-81
2023/09/17 05:35:11;;;;;;;3.85;3.13;;;;;;;;;;4989977;28;20030;-82
2023/09/17 05:37:37;;;;;;;4.82;2.97;;;;;;;;;;4986246;28;20030;-81
2023/09/17 05:40:03;;;;;;;4.78;2.83;;;;;;;;;;4980569;28;20026;-81
2023/09/17 05:42:30;;;;;;;3.88;2.60;;;;;;;;;;4992898;28;20018;-81
2023/09/17 05:44:56;;;;;;;3.58;2.17;;;;;;;;;;4990267;28;20031;-81
2023/09/17 05:47:22;;;;;;;4.70;2.95;;;;;;;;;;4992896;28;20030;-81
2023/09/17 05:49:48;;;;;;;3.40;2.50;;;;;;;;;;4982540;28;20030;-80
2023/09/17 05:52:16;;;;;;;4.65;2.72;;;;;;;;;;4996755;28;20039;-80
2023/09/17 05:54:41;;;;;;;3.33;2.45;;;;;;;;;;4983670;28;20031;-81
2023/09/17 05:57:07;;;;;;;2.90;2.15;;;;;;;;;;4986930;28;20480;-81
2023/09/17 05:59:34;;;;;;;5.18;2.60;;;;;;;;;;4990191;28;20023;-81
2023/09/17 06:02:00;;;;;;;7.90;3.03;;;;;;;;;;4991868;28;20022;-81
2023/09/17 06:04:26;;;;;;;3.28;2.17;;;;;;;;;;4991377;28;20033;-84
2023/09/17 06:06:52;;;;;;;2.83;2.42;;;;;;;;;;5011273;28;20093;-81
2023/09/17 06:09:18;;;;;;;4.18;2.95;;;;;;;;;;5012123;28;20030;-79
2023/09/17 06:11:44;;;;;;;3.42;2.30;;;;;;;;;;4997702;28;20022;-81
2023/09/17 06:14:10;;;;;;;5.20;3.00;;;;;;;;;;5007800;28;20096;-83
2023/09/17 06:16:36;;;;;;;4.28;2.20;;;;;;;;;;5008140;28;20057;-86
2023/09/17 06:19:02;;;;;;;2.85;2.13;;;;;;;;;;5017529;28;22025;-84
2023/09/17 06:21:28;;;;;;;3.45;2.53;;;;;;;;;;5012490;28;20038;-84
2023/09/17 06:23:54;;;;;;;4.57;2.60;;;;;;;;;;5012151;28;20066;-85
2023/09/17 06:26:20;;;;;;;4.18;2.53;;;;;;;;;;5008959;28;20041;-82
2023/09/17 06:28:46;;;;;;;3.80;2.47;;;;;;;;;;5011838;28;20034;-83
2023/09/17 06:31:12;;;;;;;3.80;2.53;;;;;;;;;;5012131;28;20014;-83
2023/09/17 06:33:38;;;;;;;5.10;2.28;;;;;;;;;;5007072;28;20029;-82
2023/09/17 06:36:04;;;;;;;4.93;2.45;;;;;;;;;;5009564;28;20378;-83
2023/09/17 06:38:30;;;;;;;3.38;2.60;;;;;;;;;;5009748;28;20042;-85
2023/09/17 06:40:56;;;;;;;4.07;2.08;;;;;;;;;;4994642;28;20032;-85
2023/09/17 06:43:22;;;;;;;2.83;2.33;;;;;;;;;;5011983;28;20037;-86
2023/09/17 06:45:48;;;;;;;3.58;2.35;;;;;;;;;;5010701;28;20030;-87
2023/09/17 06:48:15;;;;;;;3.05;2.20;;;;;;;;;;5010613;28;20384;-85
2023/09/17 06:50:40;;;;;;;3.00;2.33;;;;;;;;;;5010107;28;20841;-83
2023/09/17 06:53:06;;;;;;;3.60;2.13;;;;;;;;;;5012261;28;20040;-79
2023/09/17 06:55:34;;;;;;;3.47;2.50;;;;;;;;;;5003867;28;20045;-81
2023/09/17 06:57:59;;;;;;;2.95;2.28;;;;;;;;;;4999418;28;20058;-80
2023/09/17 07:00:25;;;;;;;3.85;2.55;;;;;;;;;;5020086;28;20057;-79
2023/09/17 07:02:51;;;;;;;4.18;2.72;;;;;;;;;;5021503;28;20029;-80
2023/09/17 07:05:17;;;;;;;4.95;2.85;;;;;;;;;;5008558;28;20037;-79
2023/09/17 07:07:43;;;;;;;3.83;2.35;;;;;;;;;;5009651;28;20030;-80
2023/09/17 07:10:09;;;;;;;3.20;2.33;;;;;;;;;;5007022;28;20463;-79
2023/09/17 07:12:38;;;;;;;3.28;2.08;;;;;;;;;;5002462;28;20029;-79
2023/09/17 07:15:10;;;;;;;3.80;2.35;;;;;;;;;;5002521;28;20030;-79
2023/09/17 07:17:36;;;;;;;3.97;2.55;;;;;;;;;;4998318;28;20030;-79
2023/09/17 07:20:01;;;;;;;4.55;2.33;;;;;;;;;;5002184;28;20389;-79
2023/09/17 07:22:27;;;;;;;3.63;2.15;;;;;;;;;;5001344;28;20073;-79
2023/09/17 07:24:58;;;;;;;10.50;2.75;;;;;;;;;;5003556;28;20030;-80
2023/09/17 07:27:24;;;;;;;5.40;2.60;;;;;;;;;;5001050;28;20035;-79
2023/09/17 07:29:50;;;;;;;4.43;2.60;;;;;;;;;;5003824;28;20064;-78
2023/09/17 07:32:16;;;;;;;4.57;2.58;;;;;;;;;;5004226;28;20072;-75
2023/09/17 07:34:42;;;;;;;3.08;2.65;;;;;;;;;;4999499;28;20036;-76
2023/09/17 07:37:08;;;;;;;3.65;2.33;;;;;;;;;;4999983;28;20500;-76
2023/09/17 07:39:34;;;;;;;3.28;2.22;;;;;;;;;;5001212;28;20731;-75
2023/09/17 07:42:00;;;;;;;3.78;2.15;;;;;;;;;;5001169;28;20034;-78
2023/09/17 07:44:26;;;;;;;7.05;2.40;;;;;;;;;;5003531;28;20026;-76
2023/09/17 07:46:52;;;;;;;3.20;2.50;;;;;;;;;;5008171;28;20061;-75
2023/09/17 07:49:18;;;;;;;5.55;2.13;;;;;;;;;;5011107;28;20045;-75
2023/09/17 07:51:44;;;;;;;3.58;2.30;;;;;;;;;;5008056;28;20014;-75
2023/09/17 07:54:10;;;;;;;3.08;2.25;;;;;;;;;;5008551;28;20030;-76
2023/09/17 07:56:36;;;;;;;3.33;2.45;;;;;;;;;;5008184;28;20672;-74
2023/09/17 07:59:03;;;;;;;3.28;2.35;;;;;;;;;;5005162;28;20672;-75
2023/09/17 08:01:30;;;;;;;2.35;2.03;;;;;;;;;;5005645;28;20029;-76
2023/09/17 08:03:56;;;;;;;3.65;2.50;;;;;;;;;;5009511;28;20067;-75
2023/09/17 08:06:23;;;;;;;2.55;2.13;;;;;;;;;;5006444;28;20052;-76
2023/09/17 08:08:49;;;;;;;4.68;2.55;;;;;;;;;;5004677;28;20034;-76
2023/09/17 08:11:16;;;;;;;2.53;2.25;;;;;;;;;;5005401;28;20092;-77
2023/09/17 08:13:42;;;;;;;2.85;2.08;;;;;;;;;;5008042;28;20724;-76
2023/09/17 08:16:08;;;;;;;2.55;1.95;;;;;;;;;;5017675;28;20026;-76
2023/09/17 08:18:34;;;;;;;3.60;2.72;;;;;;;;;;5010741;28;20099;-77
2023/09/17 08:21:00;;;;;;;4.28;2.47;;;;;;;;;;5008643;28;20113;-74
2023/09/17 08:23:26;;;;;;;5.30;2.30;;;;;;;;;;5005396;28;20038;-78
2023/09/17 08:25:52;;;;;;;2.30;2.00;;;;;;;;;;5000186;28;20022;-78
2023/09/17 08:28:22;;;;;;;3.45;2.40;;;;;;;;;;5006887;28;20398;-75
2023/09/17 08:30:48;;;;;;;4.03;2.38;;;;;;;;;;5012850;28;20263;-80
2023/09/17 08:33:15;;;;;;;4.05;2.53;;;;;;;;;;5007884;28;20062;-75
2023/09/17 08:35:41;;;;;;;3.78;2.40;;;;;;;;;;5010070;28;20033;-83
2023/09/17 08:38:09;;;;;;;2.30;1.95;;;;;;;;;;5003753;28;20485;-83
2023/09/17 08:40:35;;;;;;;2.33;1.90;;;;;;;;;;5006316;28;20034;-82
2023/09/17 08:43:02;;;;;;;3.92;2.40;;;;;;;;;;4993991;28;20033;-81
2023/09/17 08:45:29;;;;;;;3.85;2.60;;;;;;;;;;5005103;28;20032;-78
2023/09/17 08:47:55;;;;;;;3.17;2.20;;;;;;;;;;5007316;28;20476;-78
2023/09/17 08:50:21;;;;;;;4.25;2.30;;;;;;;;;;5009290;28;20026;-78
2023/09/17 08:52:48;;;;;;;2.58;2.08;;;;;;;;;;5009874;28;20029;-78
2023/09/17 08:55:17;;;;;;;3.35;2.47;;;;;;;;;;5009490;28;20084;-76
2023/09/17 08:57:47;;;;;;;3.40;2.40;;;;;;;;;;5009452;28;20069;-77
2023/09/17 09:00:15;;;;;;;3.22;2.10;;;;;;;;;;5000683;28;20014;-76
2023/09/17 09:02:45;;;;;;;2.63;1.98;;;;;;;;;;5008871;28;20370;-77
2023/09/17 09:05:14;;;;;;;2.95;2.15;;;;;;;;;;5009808;28;20048;-76
2023/09/17 09:07:41;;;;;;;8.48;2.60;;;;;;;;;;4999541;28;20499;-77
2023/09/17 09:10:07;;;;;;;4.45;2.30;;;;;;;;;;4999205;28;20115;-77
2023/09/17 09:12:33;;;;;;;4.30;2.55;;;;;;;;;;4997425;28;20113;-77
2023/09/17 09:14:59;;;;;;;2.53;2.00;;;;;;;;;;5008780;28;20038;-77
2023/09/17 09:17:26;;;;;;;3.58;2.20;;;;;;;;;;5002459;28;20456;-76
2023/09/17 09:19:52;;;;;;;3.30;2.38;;;;;;;;;;5008019;28;20475;-77
2023/09/17 09:22:19;;;;;;;2.70;2.10;;;;;;;;;;5005585;28;20018;-78
2023/09/17 09:24:48;;;;;;;3.03;2.17;;;;;;;;;;4997933;28;20477;-77
2023/09/17 09:27:15;;;;;;;2.03;1.77;;;;;;;;;;5000020;28;20033;-78
2023/09/17 09:29:42;;;;;;;2.97;2.03;;;;;;;;;;5002660;28;20531;-77
2023/09/17 09:32:11;;;;;;;2.92;2.13;;;;;;;;;;5003251;28;20076;-77
2023/09/17 09:34:41;;;;;;;3.03;2.00;;;;;;;;;;5004840;28;20124;-77
2023/09/17 09:37:12;;;;;;;2.15;1.77;;;;;;;;;;5002575;28;20084;-77
2023/09/17 09:39:38;;;;;;;3.45;1.80;;;;;;;;;;4997471;28;20022;-77
2023/09/17 09:42:05;;;;;;;2.45;1.63;;;;;;;;;;5004882;28;20503;-77
2023/09/17 09:44:31;;;;;;;2.80;1.90;;;;;;;;;;5008053;28;20057;-77
2023/09/17 09:47:02;;;;;;;2.67;2.05;;;;;;;;;;5005653;28;20435;-77
2023/09/17 09:49:28;;;;;;;3.97;2.45;;;;;;;;;;5004871;28;20026;-77
2023/09/17 09:51:55;;;;;;;2.55;2.15;;;;;;;;;;4998334;28;20031;-77
2023/09/17 09:54:21;;;;;;;3.97;1.95;;;;;;;;;;5004849;28;20045;-77
2023/09/17 09:56:58;;;;;;;2.53;1.80;;;;;;;;;;5007931;28;20026;-79
2023/09/17 09:59:25;;;;;;;3.17;2.03;;;;;;;;;;5006165;28;20432;-77
2023/09/17 10:01:54;;;;;;;3.80;1.77;;;;;;;;;;5001594;28;20080;-77
2023/09/17 10:04:20;;;;;;;3.00;2.38;;;;;;;;;;5004289;28;20037;-77
2023/09/17 10:06:46;;;;;;;3.22;2.25;;;;;;;;;;4989303;28;20133;-77
2023/09/17 10:09:13;;;;;;;2.83;2.17;;;;;;;;;;4993532;28;20022;-76
2023/09/17 10:11:42;;;;;;;3.05;2.20;;;;;;;;;;4992733;28;20030;-77
2023/09/17 10:14:09;;;;;;;2.92;1.90;;;;;;;;;;4991679;28;20088;-77
2023/09/17 10:16:38;;;;;;;2.75;2.13;;;;;;;;;;4991255;28;20113;-77
2023/09/17 10:19:05;;;;;;;2.10;1.90;;;;;;;;;;4990284;28;20031;-77
2023/09/17 10:21:37;;;;;;;2.47;1.75;;;;;;;;;;4988442;28;20034;-77
2023/09/17 10:24:03;;;;;;;2.83;1.85;;;;;;;;;;4991697;28;20027;-77
2023/09/17 10:26:41;;;;;;;2.90;1.95;;;;;;;;;;4991446;28;20550;-77
2023/09/17 10:29:07;;;;;;;2.42;2.00;;;;;;;;;;4988106;28;20018;-77
2023/09/17 10:31:33;;;;;;;3.75;1.90;;;;;;;;;;4992174;28;20021;-76
2023/09/17 10:34:01;;;;;;;4.68;2.60;;;;;;;;;;4991774;28;20034;-77
2023/09/17 10:36:28;;;;;;;2.80;1.90;;;;;;;;;;4990293;28;20473;-77
2023/09/17 10:38:57;;;;;;;3.20;1.98;;;;;;;;;;4989971;28;20089;-76
2023/09/17 10:41:24;;;;;;;2.55;1.92;;;;;;;;;;4991116;28;20033;-76
2023/09/17 10:43:51;;;;;;;3.00;2.03;;;;;;;;;;5001741;28;20034;-76
2023/09/17 10:46:19;;;;;;;2.50;2.13;;;;;;;;;;4991796;28;20057;-77
2023/09/17 10:48:46;;;;;;;3.45;2.00;;;;;;;;;;4988196;28;20033;-76
2023/09/17 10:51:12;;;;;;;2.33;1.80;;;;;;;;;;4997367;28;20022;-77
2023/09/17 10:53:38;;;;;;;3.47;2.25;;;;;;;;;;4994314;28;20026;-77
2023/09/17 10:56:08;;;;;;;2.90;2.20;;;;;;;;;;4991285;28;20027;-77
2023/09/17 10:58:37;;;;;;;2.55;1.92;;;;;;;;;;4988768;28;20023;-76
2023/09/17 11:01:04;;;;;;;3.00;1.90;;;;;;;;;;4998272;28;20050;-77
2023/09/17 11:03:31;;;;;;;2.63;2.03;;;;;;;;;;4993548;28;20166;-76
2023/09/17 11:05:57;;;;;;;1.90;1.48;;;;;;;;;;5002586;28;20042;-76
2023/09/17 11:08:23;;;;;;;2.75;2.13;;;;;;;;;;5002664;28;20069;-77
2023/09/17 11:10:49;;;;;;;2.35;1.95;;;;;;;;;;5002620;28;20032;-77
2023/09/17 11:13:15;;;;;;;1.92;1.58;;;;;;;;;;5006621;28;20026;-76
2023/09/17 11:15:42;;;;;;;2.58;1.95;;;;;;;;;;5002519;28;20534;-76
2023/09/17 11:18:09;;;;;;;2.72;1.92;;;;;;;;;;5002589;28;20044;-77
2023/09/17 11:20:39;;;;;;;1.70;1.60;;;;;;;;;;5007047;28;20022;-77
2023/09/17 11:23:05;;;;;;;2.35;2.05;;;;;;;;;;5008379;28;20118;-76
2023/09/17 11:25:34;;;;;;;2.20;1.73;;;;;;;;;;5006532;28;20507;-77
2023/09/17 11:28:08;;;;;;;2.15;1.80;;;;;;;;;;4999421;28;20034;-76
2023/09/17 11:30:54;;;;;;;2.03;1.73;;;;;;;;;;4992693;28;20070;-77
2023/09/17 11:33:22;;;;;;;2.38;1.80;;;;;;;;;;5005448;28;20162;-77
2023/09/17 11:35:48;;;;;;;2.58;1.83;;;;;;;;;;5009931;28;20028;-76
2023/09/17 11:38:14;;;;;;;1.70;1.60;;;;;;;;;;4993610;28;20032;-76
2023/09/17 11:40:42;;;;;;;3.45;2.08;;;;;;;;;;5010881;28;20116;-76
2023/09/17 11:43:08;;;;;;;4.63;2.00;;;;;;;;;;5010840;28;20057;-77
2023/09/17 11:45:34;;;;;;;2.00;1.80;;;;;;;;;;5010341;28;20473;-76
2023/09/17 11:48:04;;;;;;;3.50;1.98;;;;;;;;;;5010895;28;20121;-76
2023/09/17 11:50:30;;;;;;;3.13;2.23;;;;;;;;;;4997699;28;20026;-76
2023/09/17 11:53:06;;;;;;;2.78;1.65;;;;;;;;;;5006675;28;20248;-76
2023/09/17 11:55:34;;;;;;;2.22;1.80;;;;;;;;;;5004254;28;20477;-76
2023/09/17 11:58:16;;;;;;;2.35;1.73;;;;;;;;;;5006139;28;20770;-77
2023/09/17 12:00:42;;;;;;;2.13;1.60;;;;;;;;;;5004551;28;20030;-76
2023/09/17 12:03:10;;;;;;;2.38;1.75;;;;;;;;;;5010060;28;20113;-77
2023/09/17 12:05:36;;;;;;;1.92;1.73;;;;;;;;;;4997267;28;20038;-76
2023/09/17 12:08:02;;;;;;;3.05;1.90;;;;;;;;;;5006780;28;20068;-77
2023/09/17 12:10:29;;;;;;;2.70;1.98;;;;;;;;;;5009971;28;20030;-76
2023/09/17 12:12:55;;;;;;;1.58;1.48;;;;;;;;;;5010428;28;20105;-76
2023/09/17 12:15:21;;;;;;;1.83;1.60;;;;;;;;;;5007371;28;20167;-77
2023/09/17 12:17:48;;;;;;;1.90;1.60;;;;;;;;;;5007167;28;20018;-76
2023/09/17 12:20:30;;;;;;;2.33;1.90;;;;;;;;;;5009976;28;20095;-76
2023/09/17 12:22:57;;;;;;;1.65;1.55;;;;;;;;;;5009884;28;20029;-76
2023/09/17 12:25:23;;;;;;;2.17;1.73;;;;;;;;;;5006259;28;20026;-77
2023/09/17 12:27:49;;;;;;;2.08;1.65;;;;;;;;;;5006692;28;20109;-76
2023/09/17 12:30:15;;;;;;;2.92;1.85;;;;;;;;;;5009188;28;20026;-77
2023/09/17 12:32:42;;;;;;;1.58;1.45;;;;;;;;;;5009275;28;20029;-77
2023/09/17 12:35:08;;;;;;;1.92;1.50;;;;;;;;;;5006077;28;20108;-76
2023/09/17 12:37:34;;;;;;;2.47;1.80;;;;;;;;;;5007708;28;20034;-76
2023/09/17 12:40:00;;;;;;;2.08;1.38;;;;;;;;;;5005390;28;20127;-76
2023/09/17 12:42:26;;;;;;;2.15;1.80;;;;;;;;;;5007471;28;20412;-83
2023/09/17 12:44:53;;;;;;;1.67;1.38;;;;;;;;;;5005991;28;20499;-83
2023/09/17 12:47:20;;;;;;;1.90;1.70;;;;;;;;;;5007281;28;20394;-84
2023/09/17 12:49:46;;;;;;;2.28;1.60;;;;;;;;;;5000053;28;20768;-80
2023/09/17 12:52:13;;;;;;;2.08;1.30;;;;;;;;;;5009147;28;20080;-85
2023/09/17 12:54:39;;;;;;;1.95;1.60;;;;;;;;;;5008710;28;20554;-88
2023/09/17 12:57:06;;;;;;;1.70;1.20;;;;;;;;;;5010231;28;20030;-91
2023/09/17 12:59:34;;;;;;;2.53;1.90;;;;;;;;;;5003852;28;20547;-79
2023/09/17 13:02:03;;;;;;;1.98;1.50;;;;;;;;;;5008001;28;20029;-79
2023/09/17 13:04:33;;;;;;;2.28;1.67;;;;;;;;;;5008382;28;20034;-76
2023/09/17 13:06:59;;;;;;;2.85;1.95;;;;;;;;;;4999010;28;20038;-77
2023/09/17 13:09:25;;;;;;;2.88;1.88;;;;;;;;;;4998976;28;20026;-77
2023/09/17 13:11:55;;;;;;;4.28;1.83;;;;;;;;;;5007229;28;20400;-77
2023/09/17 13:14:21;;;;;;;1.92;1.73;;;;;;;;;;5009830;28;20061;-78
2023/09/17 13:16:48;;;;;;;2.47;1.70;;;;;;;;;;5009013;28;20025;-76
2023/09/17 13:19:14;;;;;;;2.50;2.00;;;;;;;;;;5009462;28;20054;-75
2023/09/17 13:21:40;;;;;;;2.75;2.38;;;;;;;;;;5007803;28;20065;-75
2023/09/17 13:24:06;;;;;;;4.72;2.60;;;;;;;;;;5003430;28;20492;-75
2023/09/17 13:26:32;;;;;;;8.52;2.65;;;;;;;;;;4999449;28;20030;-76
2023/09/17 13:28:58;;;;;;;3.55;2.25;;;;;;;;;;5000247;28;20026;-76
2023/09/17 13:31:26;;;;;;;11.52;2.38;;;;;;;;;;5007673;28;20351;-76
2023/09/17 13:33:52;;;;;;;3.78;2.25;;;;;;;;;;4998927;28;20030;-76
2023/09/17 13:36:18;;;;;;;2.63;1.98;;;;;;;;;;4991892;28;20046;-76
2023/09/17 13:38:44;;;;;;;2.95;1.80;;;;;;;;;;5001926;28;20117;-76
2023/09/17 13:41:10;;;;;;;2.80;1.83;;;;;;;;;;5007522;28;20030;-76
2023/09/17 13:43:36;;;;;;;7.10;2.33;;;;;;;;;;4997659;28;20033;-76
2023/09/17 13:46:02;;;;;;;2.95;1.83;;;;;;;;;;5010745;28;20035;-79
2023/09/17 13:48:29;;;;;;;1.90;1.70;;;;;;;;;;5021907;28;20029;-76
2023/09/17 13:50:55;;;;;;;2.90;1.95;;;;;;;;;;5005251;28;20026;-76
2023/09/17 13:53:22;;;;;;;2.83;2.00;;;;;;;;;;5012723;28;20480;-75
2023/09/17 13:55:48;;;;;;;4.57;2.58;;;;;;;;;;5002010;28;20040;-76
2023/09/17 13:58:14;;;;;;;6.25;2.97;;;;;;;;;;5002540;28;20030;-76
2023/09/17 14:00:40;;;;;;;7.65;4.35;;;;;;;;;;5006382;28;20036;-76
2023/09/17 14:03:13;;;;;;;9.23;5.60;;;;;;;;;;5008406;23;20401;-76
2023/09/17 14:05:38;;;;;;;10.70;5.25;;;;;;;;;;4997318;28;20041;-76
2023/09/17 14:08:05;;;;;;;7.47;4.68;;;;;;;;;;5016528;28;20435;-77
2023/09/17 14:10:33;;;;;;;6.88;4.05;;;;;;;;;;5028020;28;20091;-76
2023/09/17 14:13:00;;;;;;;7.00;4.03;;;;;;;;;;5026785;28;20488;-75
2023/09/17 14:15:26;;;;;;;5.45;3.30;;;;;;;;;;5028251;28;20061;-76
2023/09/17 14:17:52;;;;;;;5.82;2.85;;;;;;;;;;5020190;28;20033;-76
2023/09/17 14:20:20;;;;;;;5.10;2.95;;;;;;;;;;5015872;28;20036;-76
2023/09/17 14:22:46;;;;;;;3.50;2.63;;;;;;;;;;5014339;28;20029;-76
2023/09/17 14:25:12;;;;;;;4.35;2.50;;;;;;;;;;5015524;28;20036;-76
2023/09/17 14:27:38;;;;;;;4.90;3.17;;;;;;;;;;5029803;28;20042;-76
2023/09/17 14:30:10;;;;;;;4.18;2.90;;;;;;;;;;5028506;28;20037;-76
2023/09/17 14:32:36;;;;;;;3.00;2.33;;;;;;;;;;5012624;28;20105;-76
2023/09/17 14:35:03;;;;;;;3.65;2.65;;;;;;;;;;5025249;28;20037;-76
2023/09/17 14:37:29;;;;;;;2.75;2.40;;;;;;;;;;5022681;28;20171;-75
2023/09/17 14:39:55;;;;;;;5.03;2.20;;;;;;;;;;5032349;28;20045;-74